Terminal Aerodrome Forecast
Issued by NWS Buffalo, NY

Home | Current Version | Previous Version | Text Only | Print | Product List | Glossary On
Versions: 1 2 3 4 5 6 7 8 9 10 11 12 13 14 15 16 17 18 19 20 21 22 23 24 25 26
000
FTUS41 KBUF 281506 AAA
TAFROC
TAF AMD
KROC 281506Z 2815/0112 18007KT P6SM BKN150
     FM281900 17010G16KT P6SM BKN100
     FM010300 19013KT P6SM OVC025
     FM010500 20013KT P6SM VCSH OVC100
     FM010800 20015KT P6SM VCSH OVC070 WS020/22050KT=

USA.gov is the U.S. government's official web portal to all federal, state and local government web resources and services.